Time;durP1;ratioP1;P1;durP2;ratioP2;P2;SDS_P1;SDS_P2;PMS_P1;PMS_P2;Temp;Humidity;BMP_temperature;BMP_pressure;BME280_temperature;BME280_humidity;BME280_pressure;Samples;Min_cycle;Max_cycle;Signal;HPM_P1;HPM_P2
2022/09/22 00:01:22;;;;;;;11.57;10.87;;;;;;;8.03;86.38;92996.28;5130417;28;20191;-75
2022/09/22 00:03:51;;;;;;;11.20;10.57;;;;;;;8.09;86.11;92992.66;5130730;28;20231;-75
2022/09/22 00:06:25;;;;;;;11.60;10.87;;;;;;;7.99;86.03;92987.44;5130375;28;20192;-76
2022/09/22 00:08:59;;;;;;;11.30;10.67;;;;;;;7.89;86.56;92987.38;5130891;28;20291;-75
2022/09/22 00:11:27;;;;;;;9.93;9.33;;;;;;;7.72;86.56;92984.16;5129282;28;20184;-75
2022/09/22 00:13:58;;;;;;;11.47;10.80;;;;;;;7.72;86.61;92989.34;5131612;27;20219;-75
2022/09/22 00:16:31;;;;;;;11.27;10.57;;;;;;;7.75;86.85;92988.09;5129683;28;20206;-75
2022/09/22 00:18:57;;;;;;;12.00;11.23;;;;;;;7.86;87.42;92985.28;5130860;28;20239;-76
2022/09/22 00:21:26;;;;;;;10.33;9.73;;;;;;;7.72;86.08;92965.22;5130822;28;20183;-75
2022/09/22 00:23:53;;;;;;;11.23;10.63;;;;;;;7.78;86.92;92977.97;5129914;28;20291;-75
2022/09/22 00:26:20;;;;;;;11.33;10.63;;;;;;;7.66;87.03;92979.19;5131434;28;20202;-75
2022/09/22 00:28:47;;;;;;;10.63;10.03;;;;;;;7.83;86.09;92980.59;5129510;28;20250;-75
2022/09/22 00:31:16;;;;;;;11.03;10.53;;;;;;;7.67;86.30;92983.38;5129091;28;20248;-75
2022/09/22 00:33:42;;;;;;;11.30;10.63;;;;;;;7.69;86.38;92981.28;5129155;28;20234;-75
2022/09/22 00:36:08;;;;;;;11.40;10.80;;;;;;;7.61;86.15;92987.72;5129844;28;20187;-75
2022/09/22 00:38:36;;;;;;;11.03;10.43;;;;;;;7.54;86.79;92979.38;5128324;28;20184;-75
2022/09/22 00:41:01;;;;;;;10.27;9.50;;;;;;;7.44;86.73;92968.91;5128096;28;20176;-75
2022/09/22 00:43:29;;;;;;;11.50;10.90;;;;;;;7.48;86.93;92967.41;5129126;28;20264;-76
2022/09/22 00:46:07;;;;;;;10.43;9.93;;;;;;;7.49;86.89;92976.75;5130772;27;20213;-75
2022/09/22 00:48:36;;;;;;;10.70;10.20;;;;;;;7.61;86.67;92986.97;5129951;28;20224;-76
2022/09/22 00:51:04;;;;;;;10.20;9.70;;;;;;;7.58;86.88;92972.66;5130356;28;20710;-75
2022/09/22 00:53:30;;;;;;;11.27;10.77;;;;;;;7.68;86.04;92988.31;5129437;28;20188;-76
2022/09/22 00:56:06;;;;;;;10.97;10.37;;;;;;;7.64;86.67;92982.03;5129422;28;20284;-76
2022/09/22 00:58:43;;;;;;;10.57;9.97;;;;;;;7.69;86.49;92981.28;5128218;28;20191;-76
2022/09/22 01:01:08;;;;;;;11.30;10.70;;;;;;;7.49;86.80;92937.78;5130498;28;20232;-75
2022/09/22 01:03:38;;;;;;;10.50;10.00;;;;;;;7.92;85.90;92992.06;5128931;28;20176;-76
2022/09/22 01:06:08;;;;;;;10.40;9.87;;;;;;;7.82;86.24;92986.81;5129548;28;20209;-75
2022/09/22 01:08:35;;;;;;;10.90;10.33;;;;;;;7.91;86.19;92977.50;5130207;28;20214;-76
2022/09/22 01:11:00;;;;;;;11.30;10.70;;;;;;;7.83;85.84;92975.38;5127329;28;21198;-75
2022/09/22 01:13:59;;;;;;;11.50;10.80;;;;;;;7.85;85.71;92977.72;5128325;27;20199;-76
2022/09/22 01:16:58;;;;;;;9.60;9.10;;;;;;;7.89;86.21;92976.22;5063926;28;20259;-76
2022/09/22 01:19:45;;;;;;;10.43;9.83;;;;;;;7.67;86.98;92984.13;5125423;28;20220;-75
2022/09/22 01:22:48;;;;;;;10.10;9.57;;;;;;;7.82;87.15;92965.25;5146567;27;20191;-75
2022/09/22 01:25:19;;;;;;;10.73;10.20;;;;;;;7.60;87.04;92975.78;5128268;28;20230;-76
2022/09/22 01:28:28;;;;;;;11.50;10.80;;;;;;;7.60;86.69;92975.78;5128423;28;20175;-75
2022/09/22 01:30:59;;;;;;;11.10;10.50;;;;;;;7.59;86.95;92969.03;5116505;28;20230;-75
2022/09/22 01:33:47;;;;;;;11.43;10.73;;;;;;;7.52;86.72;92965.84;5129016;28;20187;-76
2022/09/22 01:36:28;;;;;;;11.47;10.87;;;;;;;7.59;87.10;92973.44;5129203;28;20202;-75
2022/09/22 01:39:16;;;;;;;11.70;11.10;;;;;;;7.26;88.46;92927.00;5127338;28;20282;-75
2022/09/22 01:41:59;;;;;;;12.13;11.50;;;;;;;7.62;87.42;92972.94;5129452;28;20179;-75
2022/09/22 01:44:50;;;;;;;10.60;10.10;;;;;;;7.55;87.63;92967.94;5127133;28;20310;-76
2022/09/22 01:47:23;;;;;;;10.87;10.37;;;;;;;7.50;87.76;92969.75;5128478;28;20208;-75
2022/09/22 01:49:53;;;;;;;10.70;10.07;;;;;;;7.53;87.70;92964.81;5125332;28;20238;-75
2022/09/22 01:52:24;;;;;;;11.33;10.73;;;;;;;7.46;88.30;92964.28;5129129;28;20187;-76
2022/09/22 01:54:57;;;;;;;11.67;10.87;;;;;;;7.48;88.65;92970.00;5127980;28;20286;-76
2022/09/22 01:57:34;;;;;;;10.87;10.33;;;;;;;7.39;88.38;92965.53;5129078;28;20179;-76
2022/09/22 02:00:07;;;;;;;12.07;11.27;;;;;;;7.38;89.28;92956.94;5128480;28;20649;-75
2022/09/22 02:02:39;;;;;;;11.73;11.13;;;;;;;7.34;89.17;92935.09;5128028;28;20191;-76
2022/09/22 02:05:11;;;;;;;11.33;10.63;;;;;;;7.48;88.68;92957.00;5129418;28;20203;-75
2022/09/22 02:07:41;;;;;;;13.33;12.50;;;;;;;7.54;88.66;92966.41;5128023;28;20195;-76
2022/09/22 02:10:10;;;;;;;12.90;11.73;;;;;;;7.37;89.09;92952.00;5128181;28;20295;-76
2022/09/22 02:12:36;;;;;;;11.80;11.10;;;;;;;7.40;89.11;92954.88;5128445;28;20242;-76
2022/09/22 02:15:04;;;;;;;11.97;11.13;;;;;;;7.23;90.11;92954.25;5129379;28;20227;-75
2022/09/22 02:17:31;;;;;;;11.87;11.07;;;;;;;7.28;90.44;92956.88;5128448;28;20209;-75
2022/09/22 02:19:56;;;;;;;12.47;11.77;;;;;;;7.27;90.49;92965.69;5128884;28;20219;-76
2022/09/22 02:22:22;;;;;;;12.23;11.20;;;;;;;7.11;90.65;92940.69;5128491;28;20178;-75
2022/09/22 02:24:47;;;;;;;12.10;11.30;;;;;;;7.29;90.88;92952.47;5128698;28;20257;-76
2022/09/22 02:27:24;;;;;;;11.43;10.67;;;;;;;7.32;90.10;92957.16;5131585;28;20194;-76
2022/09/22 02:29:55;;;;;;;11.47;10.53;;;;;;;7.16;90.47;92961.44;5132382;28;20268;-76
2022/09/22 02:32:21;;;;;;;12.83;11.90;;;;;;;7.22;90.76;92962.28;5131632;28;20186;-76
2022/09/22 02:34:47;;;;;;;11.87;11.20;;;;;;;7.28;90.75;92945.72;5132591;27;20223;-76
2022/09/22 02:37:24;;;;;;;12.97;12.07;;;;;;;7.35;90.43;92952.25;5132780;28;20214;-75
2022/09/22 02:40:02;;;;;;;12.23;11.53;;;;;;;7.26;90.64;92953.75;5131797;28;20252;-75
2022/09/22 02:42:34;;;;;;;12.93;12.20;;;;;;;7.31;90.82;92966.78;5131776;28;20183;-76
2022/09/22 02:45:12;;;;;;;13.30;12.50;;;;;;;7.25;91.47;92962.59;5127350;28;20249;-75
2022/09/22 02:47:50;;;;;;;12.33;11.63;;;;;;;7.19;91.95;92966.16;5133324;28;20203;-75
2022/09/22 02:50:19;;;;;;;12.77;11.77;;;;;;;7.16;92.13;92969.25;5130200;28;20290;-75
2022/09/22 02:52:44;;;;;;;11.77;11.00;;;;;;;7.11;93.12;92966.63;5133085;28;20187;-75
2022/09/22 02:55:12;;;;;;;12.20;11.50;;;;;;;7.09;93.10;92963.50;5132381;28;20235;-75
2022/09/22 02:57:38;;;;;;;12.83;11.87;;;;;;;7.16;93.36;92973.69;5130053;28;20203;-76
2022/09/22 03:00:05;;;;;;;12.37;11.57;;;;;;;7.03;93.37;92977.47;5130108;27;20235;-76
2022/09/22 03:02:30;;;;;;;13.27;12.37;;;;;;;7.05;93.11;92959.06;5133268;28;20191;-76
2022/09/22 03:04:56;;;;;;;13.47;12.63;;;;;;;7.05;92.41;92962.41;5131030;28;20219;-75
2022/09/22 03:07:22;;;;;;;12.40;11.67;;;;;;;7.11;92.88;92965.84;5130210;28;20204;-76
2022/09/22 03:09:47;;;;;;;12.43;11.63;;;;;;;7.09;93.27;92971.28;5132435;28;20223;-76
2022/09/22 03:12:13;;;;;;;13.97;12.97;;;;;;;7.09;93.78;92973.88;5131095;28;20183;-76
2022/09/22 03:14:38;;;;;;;13.13;12.27;;;;;;;6.81;94.70;92955.19;5130495;28;20246;-76
2022/09/22 03:17:03;;;;;;;12.90;12.13;;;;;;;6.93;94.81;92968.78;5132180;28;20260;-76
2022/09/22 03:19:29;;;;;;;13.00;11.87;;;;;;;6.86;95.53;92970.81;5130948;28;20222;-76
2022/09/22 03:21:54;;;;;;;12.47;11.57;;;;;;;6.74;95.54;92960.59;5132005;28;20222;-76
2022/09/22 03:24:20;;;;;;;13.67;12.77;;;;;;;6.68;95.84;92956.38;5130062;28;20215;-76
2022/09/22 03:26:46;;;;;;;12.20;11.50;;;;;;;6.83;95.62;92960.94;5130147;28;20191;-75
2022/09/22 03:29:11;;;;;;;13.40;12.50;;;;;;;6.86;96.49;92974.22;5131467;28;20223;-75
2022/09/22 03:31:36;;;;;;;13.37;12.57;;;;;;;6.90;95.52;92972.69;5131245;28;20195;-75
2022/09/22 03:34:02;;;;;;;13.90;12.90;;;;;;;6.82;95.96;92962.75;5130374;28;20243;-76
2022/09/22 03:36:28;;;;;;;12.83;11.83;;;;;;;6.78;96.25;92966.88;5131908;28;20191;-76
2022/09/22 03:38:53;;;;;;;13.27;12.30;;;;;;;6.79;96.31;92971.03;5129046;28;20222;-76
2022/09/22 03:41:19;;;;;;;11.53;10.83;;;;;;;6.83;95.99;92964.31;5130427;28;20258;-76
2022/09/22 03:43:44;;;;;;;11.27;10.57;;;;;;;6.88;95.93;92966.19;5131166;28;20227;-75
2022/09/22 03:46:10;;;;;;;12.13;11.40;;;;;;;6.72;94.95;92969.66;5130431;28;20199;-75
2022/09/22 03:48:35;;;;;;;12.53;11.73;;;;;;;6.74;94.76;92970.22;5130140;28;20195;-76
2022/09/22 03:51:01;;;;;;;11.90;11.10;;;;;;;6.70;94.41;92972.50;5131174;28;20234;-76
2022/09/22 03:53:27;;;;;;;12.00;11.30;;;;;;;6.74;94.70;92967.59;5128443;28;20187;-76
2022/09/22 03:56:04;;;;;;;12.47;11.67;;;;;;;6.76;94.53;92963.72;5130641;28;20183;-75
2022/09/22 03:58:29;;;;;;;11.73;10.93;;;;;;;6.74;94.56;92970.97;5129549;28;20238;-76
2022/09/22 04:00:54;;;;;;;12.33;11.53;;;;;;;6.53;94.83;92951.06;5131311;28;20219;-75
2022/09/22 04:03:21;;;;;;;13.07;12.27;;;;;;;6.40;95.52;92934.09;5129545;28;20179;-75
2022/09/22 04:05:50;;;;;;;12.07;11.27;;;;;;;6.57;94.94;92954.72;5129656;28;20208;-78
2022/09/22 04:08:16;;;;;;;13.70;12.80;;;;;;;6.60;95.19;92972.38;5127721;28;20272;-77
2022/09/22 04:10:46;;;;;;;12.00;11.30;;;;;;;6.62;95.25;92985.13;5129742;28;20215;-77
2022/09/22 04:13:12;;;;;;;13.13;12.27;;;;;;;6.71;95.27;92989.63;5130124;28;20206;-77
2022/09/22 04:15:38;;;;;;;12.97;12.17;;;;;;;6.63;95.31;92969.31;5130386;27;20291;-77
2022/09/22 04:18:04;;;;;;;13.30;12.50;;;;;;;6.79;95.18;92984.00;5129010;28;20179;-77
2022/09/22 04:20:29;;;;;;;12.93;12.13;;;;;;;6.90;94.42;92985.66;5129014;28;20346;-78
2022/09/22 04:22:55;;;;;;;13.10;12.17;;;;;;;6.80;94.67;92987.38;5129673;28;20229;-78
2022/09/22 04:25:20;;;;;;;13.73;12.60;;;;;;;6.67;94.81;92974.78;5129052;28;20279;-78
2022/09/22 04:27:45;;;;;;;12.43;11.63;;;;;;;6.67;94.90;92965.22;5129102;28;20191;-77
2022/09/22 04:30:11;;;;;;;14.93;13.83;;;;;;;6.77;94.28;92977.50;5128822;28;20219;-77
2022/09/22 04:32:37;;;;;;;13.50;12.40;;;;;;;6.71;94.97;92968.09;5127356;28;20215;-77
2022/09/22 04:35:02;;;;;;;12.93;12.13;;;;;;;6.76;94.05;92968.91;5129292;28;20231;-80
2022/09/22 04:37:28;;;;;;;12.87;11.97;;;;;;;6.89;93.60;92984.09;5129406;28;20194;-77
2022/09/22 04:39:54;;;;;;;12.93;12.00;;;;;;;6.81;93.27;92978.56;5129107;28;20324;-78
2022/09/22 04:42:19;;;;;;;11.83;11.13;;;;;;;6.76;92.94;92962.94;5126740;28;20183;-77
2022/09/22 04:44:45;;;;;;;13.43;11.33;;;;;;;6.98;91.79;92993.00;5127390;27;20253;-77
2022/09/22 04:47:11;;;;;;;12.60;11.67;;;;;;;6.77;92.41;92954.91;5128985;28;20341;-78
2022/09/22 04:49:36;;;;;;;11.80;11.00;;;;;;;7.06;91.67;92986.56;5129217;28;20288;-77
2022/09/22 04:52:03;;;;;;;12.27;11.47;;;;;;;6.83;91.99;92964.31;5129181;28;20247;-77
2022/09/22 04:54:28;;;;;;;12.93;12.03;;;;;;;7.09;91.80;92988.66;5128263;28;20243;-77
2022/09/22 04:56:53;;;;;;;12.40;11.60;;;;;;;7.16;91.51;92989.25;5129437;28;20191;-78
2022/09/22 04:59:19;;;;;;;10.77;10.07;;;;;;;7.09;91.13;92970.50;5129721;28;20353;-77
2022/09/22 05:01:44;;;;;;;12.47;11.73;;;;;;;7.12;90.93;92970.78;5127886;28;20832;-77
2022/09/22 05:04:10;;;;;;;12.87;11.97;;;;;;;6.97;91.41;92951.72;5129674;28;20231;-77
2022/09/22 05:06:36;;;;;;;12.87;11.97;;;;;;;7.15;91.05;92977.28;5130100;28;20191;-79
2022/09/22 05:09:02;;;;;;;12.37;11.60;;;;;;;7.07;90.74;92964.75;5128716;28;20219;-79
2022/09/22 05:11:28;;;;;;;13.17;12.27;;;;;;;7.26;90.87;92984.13;5128610;28;20198;-76
2022/09/22 05:13:54;;;;;;;12.73;11.83;;;;;;;7.32;90.41;92967.53;5126777;28;20227;-77
2022/09/22 05:16:20;;;;;;;13.13;12.30;;;;;;;7.50;89.50;92978.31;5128872;28;20179;-78
2022/09/22 05:18:45;;;;;;;12.20;11.43;;;;;;;7.38;89.53;92956.16;5128865;28;20299;-78
2022/09/22 05:21:11;;;;;;;12.23;11.53;;;;;;;7.40;89.38;92974.88;5129724;28;20183;-78
2022/09/22 05:23:38;;;;;;;12.57;11.70;;;;;;;7.62;89.37;92991.91;5129369;28;20187;-78
2022/09/22 05:26:03;;;;;;;12.93;12.03;;;;;;;7.73;88.56;92983.16;5128055;28;20184;-76
2022/09/22 05:28:29;;;;;;;12.47;11.57;;;;;;;7.82;88.45;92999.03;5128322;28;20270;-77
2022/09/22 05:30:54;;;;;;;12.83;11.73;;;;;;;7.81;87.66;92993.03;5129007;28;20211;-76
2022/09/22 05:33:20;;;;;;;12.17;11.27;;;;;;;7.91;88.04;92987.91;5129192;28;20203;-77
2022/09/22 05:35:46;;;;;;;12.57;11.77;;;;;;;7.96;88.97;92985.34;5129401;28;20230;-77
2022/09/22 05:38:11;;;;;;;13.30;12.40;;;;;;;7.84;88.44;92960.59;5129191;28;20195;-77
2022/09/22 05:40:37;;;;;;;13.53;12.33;;;;;;;7.79;89.32;92963.94;5127987;28;20227;-78
2022/09/22 05:43:02;;;;;;;11.47;10.77;;;;;;;7.88;89.22;92978.03;5128121;28;20217;-77
2022/09/22 05:45:27;;;;;;;14.07;13.13;;;;;;;7.97;89.76;92988.69;5129415;28;20307;-74
2022/09/22 05:47:53;;;;;;;17.33;16.23;;;;;;;8.32;88.19;92988.09;5126542;28;20266;-77
2022/09/22 05:50:20;;;;;;;13.60;12.73;;;;;;;8.04;87.07;92982.25;5126758;28;20316;-77
2022/09/22 05:52:45;;;;;;;13.90;13.07;;;;;;;8.19;87.60;92997.91;5127704;28;20179;-75
2022/09/22 05:55:11;;;;;;;12.90;12.13;;;;;;;8.22;85.29;92993.25;5124579;28;20227;-73
2022/09/22 05:57:37;;;;;;;11.40;10.80;;;;;;;8.35;84.61;92990.19;5129232;28;20198;-73
2022/09/22 06:00:04;;;;;;;10.67;9.97;;;;;;;8.28;82.66;92976.66;5127374;28;20302;-73
2022/09/22 06:02:30;;;;;;;11.40;10.80;;;;;;;8.46;82.08;92994.41;5127521;28;20254;-75
2022/09/22 06:04:55;;;;;;;10.50;9.90;;;;;;;8.42;81.71;92988.91;5121861;28;20222;-75
2022/09/22 06:07:21;;;;;;;12.47;11.73;;;;;;;8.66;81.52;93000.44;5126485;28;20247;-77
2022/09/22 06:09:47;;;;;;;12.77;11.93;;;;;;;8.63;82.33;92989.75;5123994;28;20226;-75
2022/09/22 06:12:13;;;;;;;12.07;11.37;;;;;;;8.51;81.28;92976.19;5124343;28;20183;-75
2022/09/22 06:14:38;;;;;;;10.63;10.03;;;;;;;8.61;80.20;92994.44;5125008;28;20248;-75
2022/09/22 06:17:04;;;;;;;12.53;11.73;;;;;;;8.77;81.29;93001.25;5126240;28;20190;-76
2022/09/22 06:19:30;;;;;;;10.90;10.30;;;;;;;8.79;81.85;92996.56;5127085;28;20234;-76
2022/09/22 06:21:55;;;;;;;11.70;11.00;;;;;;;8.95;80.17;93004.13;5119890;28;20179;-75
2022/09/22 06:24:22;;;;;;;12.53;11.83;;;;;;;8.89;80.06;93005.16;5124636;28;20229;-76
2022/09/22 06:26:48;;;;;;;11.53;10.73;;;;;;;9.09;81.40;93004.44;5124835;28;20380;-73
2022/09/22 06:29:14;;;;;;;11.47;10.77;;;;;;;9.16;81.30;93002.34;5124031;28;20318;-74
2022/09/22 06:31:39;;;;;;;11.00;10.30;;;;;;;9.22;81.46;93009.91;5126685;28;20194;-74
2022/09/22 06:34:04;;;;;;;12.73;12.03;;;;;;;9.06;81.50;93003.09;5126826;28;20227;-74
2022/09/22 06:36:30;;;;;;;11.27;10.47;;;;;;;9.12;81.51;92993.50;5128139;28;20203;-75
2022/09/22 06:38:59;;;;;;;11.27;10.67;;;;;;;9.10;79.43;92979.94;5127138;28;20299;-74
2022/09/22 06:41:30;;;;;;;11.23;10.63;;;;;;;9.15;79.59;93003.38;5127159;28;20187;-71
2022/09/22 06:43:55;;;;;;;11.40;10.80;;;;;;;9.17;79.22;93001.28;5126240;28;20250;-70
2022/09/22 06:46:23;;;;;;;12.07;11.27;;;;;;;9.30;78.62;92995.56;5127351;28;20199;-70
2022/09/22 06:48:49;;;;;;;10.93;10.23;;;;;;;9.43;78.59;93005.47;5126546;28;20231;-72
2022/09/22 06:51:16;;;;;;;11.50;10.90;;;;;;;9.41;78.51;93002.34;5127244;28;20213;-70
2022/09/22 06:53:43;;;;;;;12.77;11.57;;;;;;;9.46;78.41;92990.09;5125972;28;20421;-74
2022/09/22 06:56:08;;;;;;;11.07;10.47;;;;;;;9.68;77.39;92998.41;5127335;28;20184;-74
2022/09/22 06:58:34;;;;;;;11.23;10.63;;;;;;;9.46;78.05;92964.03;5127077;28;20264;-75
2022/09/22 07:01:04;;;;;;;10.77;10.17;;;;;;;9.85;77.83;93013.78;5127998;28;20183;-74
2022/09/22 07:03:32;;;;;;;11.60;11.00;;;;;;;9.74;77.52;93007.00;5126810;28;20225;-75
2022/09/22 07:06:02;;;;;;;11.97;11.20;;;;;;;9.83;78.06;93008.03;5127487;28;20180;-73
2022/09/22 07:08:30;;;;;;;11.20;10.40;;;;;;;9.97;77.18;93006.44;5126506;28;20183;-75
2022/09/22 07:11:03;;;;;;;10.43;9.83;;;;;;;10.02;77.10;92977.75;5126501;28;20241;-74
2022/09/22 07:13:31;;;;;;;11.80;11.10;;;;;;;10.11;77.47;92997.03;5126362;28;20192;-71
2022/09/22 07:16:19;;;;;;;12.17;11.37;;;;;;;10.10;77.49;92995.47;5131920;28;20191;-70
2022/09/22 07:18:46;;;;;;;12.17;11.37;;;;;;;10.14;78.95;93012.16;5130582;28;20231;-70
2022/09/22 07:21:21;;;;;;;11.90;10.93;;;;;;;10.12;77.71;93011.63;5129933;28;20184;-70
2022/09/22 07:23:48;;;;;;;11.33;10.63;;;;;;;9.76;77.25;92990.06;5130584;28;20282;-73
2022/09/22 07:26:19;;;;;;;11.63;11.03;;;;;;;10.00;76.23;93005.91;5130711;28;20209;-73
2022/09/22 07:28:45;;;;;;;11.90;11.07;;;;;;;9.77;76.63;92990.84;5128675;28;20219;-73
2022/09/22 07:31:13;;;;;;;12.43;11.73;;;;;;;9.85;77.35;93013.78;5130550;28;20240;-72
2022/09/22 07:33:41;;;;;;;11.80;11.10;;;;;;;9.99;77.14;93017.41;5129821;28;20184;-73
2022/09/22 07:36:10;;;;;;;11.77;11.17;;;;;;;10.09;76.83;93009.56;5132744;28;20191;-75
2022/09/22 07:38:37;;;;;;;12.13;11.33;;;;;;;10.04;76.42;93019.97;5129263;27;20201;-77
2022/09/22 07:41:09;;;;;;;12.10;11.37;;;;;;;10.25;77.09;93018.13;5129646;27;20258;-75
2022/09/22 07:43:34;;;;;;;11.40;10.80;;;;;;;10.43;76.06;93013.09;5129276;28;20191;-76
2022/09/22 07:46:00;;;;;;;11.23;10.57;;;;;;;10.40;76.34;93002.41;5131816;28;20183;-77
2022/09/22 07:48:40;;;;;;;11.40;10.70;;;;;;;10.56;74.96;93025.59;5129965;28;20184;-76
2022/09/22 07:51:18;;;;;;;11.80;11.10;;;;;;;10.67;75.65;93034.94;5131188;28;20243;-78
2022/09/22 07:54:15;;;;;;;11.97;11.27;;;;;;;10.76;75.07;93020.28;5130671;28;20308;-75
2022/09/22 07:56:43;;;;;;;11.77;11.17;;;;;;;10.87;75.44;93002.72;5126612;28;20217;-74
2022/09/22 07:59:11;;;;;;;12.00;11.23;;;;;;;10.95;72.26;93023.03;5131257;28;20248;-76
2022/09/22 08:01:42;;;;;;;11.53;10.63;;;;;;;11.45;72.84;93027.94;5131265;28;20283;-74
2022/09/22 08:04:11;;;;;;;11.03;10.33;;;;;;;11.07;72.42;93020.88;5130570;28;20246;-75
2022/09/22 08:06:36;;;;;;;11.90;11.03;;;;;;;11.09;73.10;93037.06;5128459;28;20266;-75
2022/09/22 08:09:03;;;;;;;11.63;10.93;;;;;;;11.32;72.21;93039.78;5129578;28;20238;-74
2022/09/22 08:11:29;;;;;;;10.23;9.63;;;;;;;11.33;72.74;93040.59;5129117;28;20187;-74
2022/09/22 08:14:00;;;;;;;11.33;10.73;;;;;;;11.08;71.11;93002.31;5127969;28;20242;-81
2022/09/22 08:16:28;;;;;;;12.53;11.40;;;;;;;11.56;72.14;93029.44;5128990;28;20172;-80
2022/09/22 08:18:55;;;;;;;11.13;10.40;;;;;;;11.45;70.91;93043.63;5126404;28;20231;-80
2022/09/22 08:21:26;;;;;;;12.17;11.37;;;;;;;11.61;70.00;93023.38;5130212;28;20213;-80
2022/09/22 08:23:53;;;;;;;11.13;10.43;;;;;;;11.38;70.84;93034.53;5129076;27;20217;-79
2022/09/22 08:26:19;;;;;;;11.43;10.83;;;;;;;11.31;71.30;93014.69;5130753;28;20177;-80
2022/09/22 08:28:46;;;;;;;11.27;10.67;;;;;;;11.32;71.10;93012.88;5127430;28;20226;-79
2022/09/22 08:31:18;;;;;;;11.43;10.73;;;;;;;11.51;70.29;93015.59;5128235;28;20282;-79
2022/09/22 08:33:44;;;;;;;12.27;11.23;;;;;;;11.51;70.06;93032.06;5125291;28;20254;-80
2022/09/22 08:36:09;;;;;;;11.40;10.80;;;;;;;11.20;69.71;93015.84;5128443;28;20192;-80
2022/09/22 08:38:36;;;;;;;10.43;9.93;;;;;;;11.10;68.17;93008.06;5126941;28;20180;-80
2022/09/22 08:41:14;;;;;;;11.47;10.87;;;;;;;11.15;70.27;93028.94;5128912;28;20192;-80
2022/09/22 08:43:53;;;;;;;11.23;10.63;;;;;;;11.33;68.11;93015.19;5126607;28;20191;-80
2022/09/22 08:46:18;;;;;;;10.83;10.30;;;;;;;11.77;67.24;93020.38;5129313;28;20176;-83
2022/09/22 08:51:52;;;;;;;9.80;9.30;;;;;;;11.95;63.86;93026.75;5129754;28;20199;-80
2022/09/22 08:54:20;;;;;;;9.20;8.70;;;;;;;12.04;65.36;93014.63;5129912;28;20228;-82
2022/09/22 08:57:32;;;;;;;10.30;9.80;;;;;;;12.07;65.41;93025.34;5128528;28;20897;-80
2022/09/22 09:00:08;;;;;;;11.57;10.87;;;;;;;12.01;66.00;93010.75;5077504;28;20231;-81
2022/09/22 09:02:40;;;;;;;10.67;10.07;;;;;;;11.55;68.02;92999.09;5129278;28;20273;-80
2022/09/22 09:05:44;;;;;;;10.30;9.80;;;;;;;11.92;66.19;93028.06;5129205;28;20247;-80
2022/09/22 09:08:27;;;;;;;11.00;10.50;;;;;;;12.15;65.55;93021.31;5128460;28;20200;-80
2022/09/22 09:11:06;;;;;;;10.87;10.23;;;;;;;11.91;65.71;93005.59;5127468;28;20253;-80
2022/09/22 09:13:59;;;;;;;9.67;9.20;;;;;;;11.97;62.16;93022.81;5129279;28;20188;-80
2022/09/22 09:16:30;;;;;;;9.87;9.37;;;;;;;12.33;61.79;93020.59;5129794;28;20215;-80
2022/09/22 09:19:14;;;;;;;9.20;8.80;;;;;;;12.51;62.08;93007.56;5127855;28;20281;-80
2022/09/22 09:21:47;;;;;;;9.17;8.77;;;;;;;12.64;59.73;93024.44;5129421;28;20198;-80
2022/09/22 09:24:30;;;;;;;9.17;8.77;;;;;;;12.35;57.53;92980.00;5127733;28;20253;-79
2022/09/22 09:26:59;;;;;;;9.27;8.87;;;;;;;12.47;55.91;93005.78;5129717;28;20181;-80
2022/09/22 09:29:32;;;;;;;9.17;8.67;;;;;;;12.30;58.94;93000.22;5128646;28;20230;-80
2022/09/22 09:32:02;;;;;;;9.53;9.03;;;;;;;12.98;56.60;92988.34;5128466;28;20199;-79
2022/09/22 09:34:29;;;;;;;9.27;8.77;;;;;;;13.22;57.84;93010.06;5129639;28;20223;-80
2022/09/22 09:37:06;;;;;;;9.50;9.10;;;;;;;13.40;57.88;93014.50;5129939;28;20191;-80
2022/09/22 09:39:35;;;;;;;9.10;8.70;;;;;;;13.52;58.34;93009.63;5129379;27;20235;-80
2022/09/22 09:42:07;;;;;;;8.83;8.40;;;;;;;13.75;57.30;93013.97;5128035;28;20210;-80
2022/09/22 09:44:38;;;;;;;10.20;9.70;;;;;;;13.13;59.02;93005.75;5129084;28;20223;-80
2022/09/22 09:47:06;;;;;;;9.50;9.10;;;;;;;12.48;60.28;93009.97;5129323;28;20281;-80
2022/09/22 09:49:33;;;;;;;9.77;9.17;;;;;;;12.36;62.37;93001.72;5129565;28;20252;-80
2022/09/22 09:52:08;;;;;;;9.03;8.63;;;;;;;12.15;61.62;92995.16;5128720;28;20180;-80
2022/09/22 09:54:36;;;;;;;9.17;8.67;;;;;;;12.38;63.13;93007.47;5127845;28;20241;-80
2022/09/22 09:57:10;;;;;;;9.90;9.40;;;;;;;12.89;59.23;93006.56;5129700;28;20183;-79
2022/09/22 10:02:28;;;;;;;9.67;9.27;;;;;;;13.16;56.48;93008.59;5127645;28;20280;-80
2022/09/22 10:05:03;;;;;;;9.20;8.80;;;;;;;13.08;56.21;93003.97;5128286;28;20248;-80
2022/09/22 10:07:53;;;;;;;9.43;9.03;;;;;;;12.58;57.27;93001.97;5129683;28;20192;-79
2022/09/22 10:10:22;;;;;;;8.73;8.33;;;;;;;12.90;55.14;92996.88;5129136;28;20223;-80
2022/09/22 10:12:47;;;;;;;8.60;8.30;;;;;;;13.12;52.98;92988.47;5129068;28;20178;-79
2022/09/22 10:15:24;;;;;;;9.17;8.67;;;;;;;13.16;54.97;92974.50;5129214;28;20214;-80
2022/09/22 10:17:50;;;;;;;9.80;9.40;;;;;;;13.11;56.17;92979.81;5127317;28;20175;-80
2022/09/22 10:20:25;;;;;;;9.87;9.27;;;;;;;13.61;55.17;92986.91;5128413;28;20223;-80
2022/09/22 10:22:52;;;;;;;9.00;8.60;;;;;;;13.68;55.40;92986.53;5129830;28;20204;-80
2022/09/22 10:25:24;;;;;;;9.53;9.13;;;;;;;13.56;54.84;92994.84;5127893;28;20226;-80
2022/09/22 10:28:14;;;;;;;8.90;8.50;;;;;;;13.39;54.26;92985.94;5128718;28;20225;-80
2022/09/22 10:30:41;;;;;;;9.47;9.07;;;;;;;13.75;51.98;92982.47;5128317;28;20253;-79
2022/09/22 10:33:12;;;;;;;9.03;8.53;;;;;;;13.46;53.10;92984.53;5128452;28;20183;-80
2022/09/22 10:35:40;;;;;;;8.43;8.03;;;;;;;13.39;53.63;92984.13;5128948;28;20234;-80
2022/09/22 10:38:21;;;;;;;9.47;9.07;;;;;;;13.70;51.75;92974.69;5129342;28;20187;-80
2022/09/22 10:40:59;;;;;;;7.93;7.57;;;;;;;13.39;51.48;92986.75;5127430;28;20222;-80
2022/09/22 10:43:47;;;;;;;9.40;9.00;;;;;;;13.78;51.18;92981.13;5127187;28;20195;-79
2022/09/22 10:46:32;;;;;;;9.40;8.90;;;;;;;14.36;50.78;92972.47;5127942;28;20188;-81
2022/09/22 10:49:12;;;;;;;8.87;8.50;;;;;;;14.20;51.13;92970.38;5130268;27;20252;-80
2022/09/22 10:51:57;;;;;;;9.20;8.80;;;;;;;14.10;52.02;92968.72;5129926;28;20199;-80
2022/09/22 10:54:25;;;;;;;8.43;8.13;;;;;;;14.01;54.19;92970.47;5132475;28;20222;-80
2022/09/22 10:56:55;;;;;;;8.63;8.33;;;;;;;14.02;51.79;92972.00;5132496;28;20191;-79
2022/09/22 10:59:26;;;;;;;9.97;9.47;;;;;;;13.87;53.80;92967.03;5130970;28;20293;-81
2022/09/22 11:02:03;;;;;;;8.27;7.87;;;;;;;14.04;51.88;92964.63;5132406;28;20203;-80
2022/09/22 11:04:47;;;;;;;8.67;8.37;;;;;;;14.14;51.23;92959.22;5131478;28;20223;-79
2022/09/22 11:13:33;;;;;;;9.07;8.73;;;;;;;14.26;49.78;92954.28;5132683;28;20230;-80
2022/09/22 11:16:18;;;;;;;8.83;8.43;;;;;;;14.48;47.95;92928.09;5130188;28;20232;-80
2022/09/22 11:18:49;;;;;;;9.40;9.00;;;;;;;14.59;48.50;92943.63;5131228;28;20252;-80
2022/09/22 11:21:52;;;;;;;8.97;8.57;;;;;;;14.75;49.06;92947.50;5132192;28;20195;-80
2022/09/22 11:24:46;;;;;;;8.90;8.50;;;;;;;15.18;47.17;92951.28;5128742;28;20223;-81
2022/09/22 11:27:27;;;;;;;9.07;8.67;;;;;;;14.54;46.51;92941.13;5131176;28;20187;-81
2022/09/22 11:30:04;;;;;;;7.53;7.23;;;;;;;14.21;47.17;92938.56;5129540;28;20219;-80
2022/09/22 11:32:55;;;;;;;8.13;7.83;;;;;;;14.32;45.80;92947.84;5130767;28;20195;-80
2022/09/22 11:35:43;;;;;;;8.80;8.30;;;;;;;14.61;46.19;92947.53;5130112;27;20222;-80
2022/09/22 11:38:27;;;;;;;7.90;7.60;;;;;;;14.70;46.44;92950.25;5123481;28;20203;-80
2022/09/22 11:41:19;;;;;;;8.07;7.77;;;;;;;14.92;45.84;92942.41;5129763;28;20741;-80
2022/09/22 11:43:59;;;;;;;8.73;8.43;;;;;;;14.72;42.31;92940.22;5129512;28;20282;-80
2022/09/22 11:46:54;;;;;;;8.30;8.00;;;;;;;14.50;43.70;92940.94;5130153;28;20183;-79
2022/09/22 11:49:19;;;;;;;8.93;8.53;;;;;;;14.98;43.98;92936.75;5130459;28;20248;-80
2022/09/22 11:52:12;;;;;;;8.33;8.03;;;;;;;15.46;42.51;92926.44;5129306;28;20207;-80
2022/09/22 11:55:00;;;;;;;8.33;8.03;;;;;;;15.22;42.02;92920.69;5128828;27;20215;-80
2022/09/22 11:57:32;;;;;;;8.23;7.63;;;;;;;15.47;43.42;92930.66;5130844;28;20182;-80